sensor_id;sensor_type;location;lat;lon;timestamp;pressure;altitude;pressure_sealevel;temperature;humidity
13800;BME280;6971;50.028;9.258;2023-07-31T00:02:44;99298.00;;;14.58;100.00
13800;BME280;6971;50.028;9.258;2023-07-31T00:07:44;99292.38;;;14.62;100.00
13800;BME280;6971;50.028;9.258;2023-07-31T00:12:46;99277.06;;;14.66;100.00
13800;BME280;6971;50.028;9.258;2023-07-31T00:17:46;99276.19;;;14.54;100.00
13800;BME280;6971;50.028;9.258;2023-07-31T00:22:48;99276.50;;;14.49;100.00
13800;BME280;6971;50.028;9.258;2023-07-31T00:27:48;99274.88;;;14.60;100.00
13800;BME280;6971;50.028;9.258;2023-07-31T00:32:49;99276.59;;;14.48;100.00
13800;BME280;6971;50.028;9.258;2023-07-31T00:37:50;99274.09;;;14.46;100.00
13800;BME280;6971;50.028;9.258;2023-07-31T00:42:51;99272.16;;;14.48;100.00
13800;BME280;6971;50.028;9.258;2023-07-31T00:47:52;99263.34;;;14.48;100.00
13800;BME280;6971;50.028;9.258;2023-07-31T00:52:53;99261.56;;;14.48;100.00
13800;BME280;6971;50.028;9.258;2023-07-31T00:57:53;99259.63;;;14.51;100.00
13800;BME280;6971;50.028;9.258;2023-07-31T01:02:56;99261.50;;;14.61;100.00
13800;BME280;6971;50.028;9.258;2023-07-31T01:08:10;99247.28;;;14.62;100.00
13800;BME280;6971;50.028;9.258;2023-07-31T01:13:13;99238.38;;;14.64;100.00
13800;BME280;6971;50.028;9.258;2023-07-31T01:18:14;99237.56;;;14.74;100.00
13800;BME280;6971;50.028;9.258;2023-07-31T01:33:40;99225.91;;;14.77;100.00
13800;BME280;6971;50.028;9.258;2023-07-31T01:38:42;99233.22;;;14.98;100.00
13800;BME280;6971;50.028;9.258;2023-07-31T01:43:45;99227.56;;;15.03;100.00
13800;BME280;6971;50.028;9.258;2023-07-31T01:48:46;99217.75;;;14.92;100.00
13800;BME280;6971;50.028;9.258;2023-07-31T01:53:47;99226.72;;;15.02;100.00
13800;BME280;6971;50.028;9.258;2023-07-31T01:58:47;99217.50;;;15.42;100.00
13800;BME280;6971;50.028;9.258;2023-07-31T02:03:50;99218.09;;;15.57;100.00
13800;BME280;6971;50.028;9.258;2023-07-31T02:08:50;99207.34;;;15.70;100.00
13800;BME280;6971;50.028;9.258;2023-07-31T02:13:51;99194.44;;;15.65;100.00
13800;BME280;6971;50.028;9.258;2023-07-31T02:18:52;99200.59;;;15.55;100.00
13800;BME280;6971;50.028;9.258;2023-07-31T02:23:53;99184.31;;;15.48;100.00
13800;BME280;6971;50.028;9.258;2023-07-31T02:28:53;99175.00;;;15.65;100.00
13800;BME280;6971;50.028;9.258;2023-07-31T02:33:54;99174.25;;;15.74;100.00
13800;BME280;6971;50.028;9.258;2023-07-31T02:38:55;99178.38;;;15.56;100.00
13800;BME280;6971;50.028;9.258;2023-07-31T02:43:56;99176.47;;;15.58;100.00
13800;BME280;6971;50.028;9.258;2023-07-31T02:48:57;99181.28;;;15.64;100.00
13800;BME280;6971;50.028;9.258;2023-07-31T02:53:58;99185.88;;;15.85;100.00
13800;BME280;6971;50.028;9.258;2023-07-31T02:58:58;99174.88;;;16.01;100.00
13800;BME280;6971;50.028;9.258;2023-07-31T03:03:59;99181.09;;;16.23;95.63
13800;BME280;6971;50.028;9.258;2023-07-31T03:09:00;99173.72;;;16.26;96.89
13800;BME280;6971;50.028;9.258;2023-07-31T03:14:01;99180.69;;;16.27;95.01
13800;BME280;6971;50.028;9.258;2023-07-31T03:19:02;99192.53;;;16.35;99.40
13800;BME280;6971;50.028;9.258;2023-07-31T03:24:03;99195.56;;;16.30;99.08
13800;BME280;6971;50.028;9.258;2023-07-31T03:29:04;99188.41;;;16.42;99.30
13800;BME280;6971;50.028;9.258;2023-07-31T03:34:05;99183.69;;;16.46;92.20
13800;BME280;6971;50.028;9.258;2023-07-31T03:39:05;99188.22;;;16.55;91.17
13800;BME280;6971;50.028;9.258;2023-07-31T03:44:06;99179.16;;;16.57;93.23
13800;BME280;6971;50.028;9.258;2023-07-31T03:49:07;99186.47;;;16.44;95.75
13800;BME280;6971;50.028;9.258;2023-07-31T03:54:08;99190.16;;;16.20;100.00
13800;BME280;6971;50.028;9.258;2023-07-31T03:59:08;99186.09;;;16.04;100.00
13800;BME280;6971;50.028;9.258;2023-07-31T04:04:09;99186.59;;;15.98;100.00
13800;BME280;6971;50.028;9.258;2023-07-31T04:09:10;99186.94;;;16.05;100.00
13800;BME280;6971;50.028;9.258;2023-07-31T04:14:11;99184.00;;;16.08;100.00
13800;BME280;6971;50.028;9.258;2023-07-31T04:19:11;99181.28;;;15.98;100.00
13800;BME280;6971;50.028;9.258;2023-07-31T04:24:16;99180.03;;;15.91;100.00
13800;BME280;6971;50.028;9.258;2023-07-31T04:29:22;99187.03;;;15.92;100.00
13800;BME280;6971;50.028;9.258;2023-07-31T04:34:23;99187.03;;;15.92;100.00
13800;BME280;6971;50.028;9.258;2023-07-31T04:39:23;99181.75;;;16.03;100.00
13800;BME280;6971;50.028;9.258;2023-07-31T04:44:23;99165.78;;;15.92;100.00
13800;BME280;6971;50.028;9.258;2023-07-31T04:49:25;99167.25;;;16.08;100.00
13800;BME280;6971;50.028;9.258;2023-07-31T04:54:26;99171.81;;;16.05;100.00
13800;BME280;6971;50.028;9.258;2023-07-31T04:59:26;99166.50;;;16.17;100.00
13800;BME280;6971;50.028;9.258;2023-07-31T05:04:26;99165.28;;;16.21;100.00
13800;BME280;6971;50.028;9.258;2023-07-31T05:09:27;99157.28;;;16.21;100.00
13800;BME280;6971;50.028;9.258;2023-07-31T05:14:29;99154.97;;;16.28;100.00
13800;BME280;6971;50.028;9.258;2023-07-31T05:19:29;99151.78;;;16.34;99.29
13800;BME280;6971;50.028;9.258;2023-07-31T05:24:29;99148.66;;;16.40;99.60
13800;BME280;6971;50.028;9.258;2023-07-31T05:29:30;99156.53;;;16.30;99.47
13800;BME280;6971;50.028;9.258;2023-07-31T05:34:30;99154.09;;;16.39;96.69
13800;BME280;6971;50.028;9.258;2023-07-31T05:39:30;99164.31;;;16.43;92.62
13800;BME280;6971;50.028;9.258;2023-07-31T05:44:31;99158.13;;;16.54;93.62
13800;BME280;6971;50.028;9.258;2023-07-31T05:49:31;99159.81;;;16.55;91.95
13800;BME280;6971;50.028;9.258;2023-07-31T05:54:32;99143.53;;;16.49;93.96
13800;BME280;6971;50.028;9.258;2023-07-31T05:59:33;99150.66;;;16.48;93.17
13800;BME280;6971;50.028;9.258;2023-07-31T06:04:34;99160.53;;;16.57;92.70
13800;BME280;6971;50.028;9.258;2023-07-31T06:09:34;99151.00;;;16.55;95.04
13800;BME280;6971;50.028;9.258;2023-07-31T06:14:35;99159.31;;;16.62;92.37
13800;BME280;6971;50.028;9.258;2023-07-31T06:19:36;99155.78;;;16.61;90.84
13800;BME280;6971;50.028;9.258;2023-07-31T06:24:37;99150.38;;;16.84;93.17
13800;BME280;6971;50.028;9.258;2023-07-31T06:29:37;99158.66;;;16.69;91.86
13800;BME280;6971;50.028;9.258;2023-07-31T06:34:38;99145.34;;;16.69;94.50
13800;BME280;6971;50.028;9.258;2023-07-31T06:39:38;99153.66;;;16.76;93.02
13800;BME280;6971;50.028;9.258;2023-07-31T06:44:38;99148.03;;;16.91;94.80
13800;BME280;6971;50.028;9.258;2023-07-31T06:49:39;99147.22;;;17.00;92.50
13800;BME280;6971;50.028;9.258;2023-07-31T06:54:39;99147.47;;;17.18;90.03
13800;BME280;6971;50.028;9.258;2023-07-31T06:59:40;99155.28;;;17.31;88.74
13800;BME280;6971;50.028;9.258;2023-07-31T07:04:41;99153.72;;;17.29;89.55
13800;BME280;6971;50.028;9.258;2023-07-31T07:09:42;99152.59;;;17.31;88.84
13800;BME280;6971;50.028;9.258;2023-07-31T07:14:42;99136.81;;;17.40;86.94
13800;BME280;6971;50.028;9.258;2023-07-31T07:19:43;99154.03;;;17.35;86.27
13800;BME280;6971;50.028;9.258;2023-07-31T07:24:43;99147.34;;;17.51;86.91
13800;BME280;6971;50.028;9.258;2023-07-31T07:29:43;99146.69;;;17.69;85.21
13800;BME280;6971;50.028;9.258;2023-07-31T07:34:44;99144.06;;;17.79;83.63
13800;BME280;6971;50.028;9.258;2023-07-31T07:39:45;99139.81;;;18.37;85.31
13800;BME280;6971;50.028;9.258;2023-07-31T07:44:46;99137.94;;;17.98;85.16
13800;BME280;6971;50.028;9.258;2023-07-31T07:49:46;99136.38;;;18.05;83.70
13800;BME280;6971;50.028;9.258;2023-07-31T07:54:47;99127.28;;;17.98;83.97
13800;BME280;6971;50.028;9.258;2023-07-31T07:59:47;99123.06;;;17.95;84.85
13800;BME280;6971;50.028;9.258;2023-07-31T08:04:47;99130.81;;;18.08;84.58
13800;BME280;6971;50.028;9.258;2023-07-31T08:09:49;99122.56;;;18.21;82.89
13800;BME280;6971;50.028;9.258;2023-07-31T08:14:50;99136.16;;;18.08;84.40
13800;BME280;6971;50.028;9.258;2023-07-31T08:19:50;99126.19;;;18.30;84.85
13800;BME280;6971;50.028;9.258;2023-07-31T08:24:50;99117.78;;;18.35;86.96
13800;BME280;6971;50.028;9.258;2023-07-31T08:29:52;99124.78;;;18.26;82.81
13800;BME280;6971;50.028;9.258;2023-07-31T08:34:52;99118.63;;;18.45;83.00
13800;BME280;6971;50.028;9.258;2023-07-31T08:39:53;99116.94;;;18.34;84.23
13800;BME280;6971;50.028;9.258;2023-07-31T08:44:56;99104.16;;;18.38;82.99
13800;BME280;6971;50.028;9.258;2023-07-31T08:49:57;99101.34;;;18.39;82.52
13800;BME280;6971;50.028;9.258;2023-07-31T08:54:59;99089.72;;;18.88;82.08
13800;BME280;6971;50.028;9.258;2023-07-31T09:00:00;99090.31;;;19.30;78.63
13800;BME280;6971;50.028;9.258;2023-07-31T09:05:01;99077.91;;;19.11;78.50
13800;BME280;6971;50.028;9.258;2023-07-31T09:10:04;99067.34;;;19.09;80.94
13800;BME280;6971;50.028;9.258;2023-07-31T09:15:06;99089.88;;;18.87;82.68
13800;BME280;6971;50.028;9.258;2023-07-31T09:20:18;99077.94;;;19.29;81.59
13800;BME280;6971;50.028;9.258;2023-07-31T09:25:24;99080.75;;;19.27;78.60
13800;BME280;6971;50.028;9.258;2023-07-31T09:30:25;99078.53;;;19.23;77.77
13800;BME280;6971;50.028;9.258;2023-07-31T09:35:31;99071.56;;;19.12;77.63
13800;BME280;6971;50.028;9.258;2023-07-31T09:40:35;99073.69;;;19.36;76.78
13800;BME280;6971;50.028;9.258;2023-07-31T09:45:41;99069.13;;;19.75;75.84
13800;BME280;6971;50.028;9.258;2023-07-31T09:50:44;99060.47;;;19.81;74.45
13800;BME280;6971;50.028;9.258;2023-07-31T09:55:44;99058.00;;;19.69;76.28
13800;BME280;6971;50.028;9.258;2023-07-31T10:00:46;99075.84;;;19.51;77.53
13800;BME280;6971;50.028;9.258;2023-07-31T10:05:50;99075.25;;;19.29;75.88
13800;BME280;6971;50.028;9.258;2023-07-31T10:10:51;99058.75;;;19.15;76.87
13800;BME280;6971;50.028;9.258;2023-07-31T10:15:52;99043.91;;;19.31;76.47
13800;BME280;6971;50.028;9.258;2023-07-31T10:20:55;99035.56;;;19.16;78.29
13800;BME280;6971;50.028;9.258;2023-07-31T10:25:57;99025.03;;;19.14;78.19
13800;BME280;6971;50.028;9.258;2023-07-31T10:31:01;99014.28;;;19.24;79.98
13800;BME280;6971;50.028;9.258;2023-07-31T10:36:19;99010.97;;;19.59;79.99
13800;BME280;6971;50.028;9.258;2023-07-31T10:41:31;99001.75;;;19.25;80.58
13800;BME280;6971;50.028;9.258;2023-07-31T10:46:33;99005.81;;;19.29;81.27
13800;BME280;6971;50.028;9.258;2023-07-31T10:51:35;99000.44;;;19.57;78.21
13800;BME280;6971;50.028;9.258;2023-07-31T10:56:38;98997.38;;;19.52;78.67
13800;BME280;6971;50.028;9.258;2023-07-31T11:01:53;98975.78;;;20.00;79.93
13800;BME280;6971;50.028;9.258;2023-07-31T11:07:00;98989.44;;;19.96;76.20
13800;BME280;6971;50.028;9.258;2023-07-31T11:12:02;98991.50;;;19.85;75.07
13800;BME280;6971;50.028;9.258;2023-07-31T11:17:07;98982.41;;;20.14;74.97
13800;BME280;6971;50.028;9.258;2023-07-31T11:22:08;98969.34;;;20.11;73.82
13800;BME280;6971;50.028;9.258;2023-07-31T11:27:10;98973.44;;;20.23;73.59
13800;BME280;6971;50.028;9.258;2023-07-31T11:32:16;98977.97;;;20.49;74.03
13800;BME280;6971;50.028;9.258;2023-07-31T11:37:18;98972.97;;;20.28;73.99
13800;BME280;6971;50.028;9.258;2023-07-31T11:42:19;98974.75;;;20.19;72.21
13800;BME280;6971;50.028;9.258;2023-07-31T11:47:19;98980.41;;;19.98;71.70
13800;BME280;6971;50.028;9.258;2023-07-31T11:52:21;98956.06;;;20.01;73.34
13800;BME280;6971;50.028;9.258;2023-07-31T11:57:23;98950.63;;;19.92;72.24
13800;BME280;6971;50.028;9.258;2023-07-31T12:02:24;98957.88;;;19.82;73.21
13800;BME280;6971;50.028;9.258;2023-07-31T12:07:26;98948.50;;;19.78;75.27
13800;BME280;6971;50.028;9.258;2023-07-31T12:12:26;98943.75;;;20.08;73.47
13800;BME280;6971;50.028;9.258;2023-07-31T12:17:27;98946.63;;;20.15;71.74
13800;BME280;6971;50.028;9.258;2023-07-31T12:22:27;98938.22;;;20.28;72.61
13800;BME280;6971;50.028;9.258;2023-07-31T12:27:33;98940.78;;;20.11;71.99
13800;BME280;6971;50.028;9.258;2023-07-31T12:32:35;98926.09;;;20.15;72.74
13800;BME280;6971;50.028;9.258;2023-07-31T12:37:36;98925.22;;;20.15;71.39
13800;BME280;6971;50.028;9.258;2023-07-31T12:42:36;98941.34;;;20.23;72.62
13800;BME280;6971;50.028;9.258;2023-07-31T12:47:37;98929.78;;;20.22;71.50
13800;BME280;6971;50.028;9.258;2023-07-31T12:52:38;98925.75;;;20.18;72.67
13800;BME280;6971;50.028;9.258;2023-07-31T12:57:39;98913.84;;;20.39;72.68
13800;BME280;6971;50.028;9.258;2023-07-31T13:02:41;98903.44;;;20.36;70.70
13800;BME280;6971;50.028;9.258;2023-07-31T13:07:42;98895.66;;;20.16;70.29
13800;BME280;6971;50.028;9.258;2023-07-31T13:12:42;98889.00;;;20.20;71.68
13800;BME280;6971;50.028;9.258;2023-07-31T13:17:43;98881.63;;;20.22;70.34
13800;BME280;6971;50.028;9.258;2023-07-31T13:22:43;98874.47;;;20.23;71.30
13800;BME280;6971;50.028;9.258;2023-07-31T13:27:45;98861.94;;;20.32;71.71
13800;BME280;6971;50.028;9.258;2023-07-31T13:32:45;98876.06;;;20.42;72.68
13800;BME280;6971;50.028;9.258;2023-07-31T13:37:46;98867.09;;;20.60;71.52
13800;BME280;6971;50.028;9.258;2023-07-31T13:42:46;98855.66;;;20.41;71.55
13800;BME280;6971;50.028;9.258;2023-07-31T13:47:50;98851.75;;;20.70;68.63
13800;BME280;6971;50.028;9.258;2023-07-31T13:52:50;98848.41;;;20.68;68.70
13800;BME280;6971;50.028;9.258;2023-07-31T13:57:50;98854.09;;;20.73;68.17
13800;BME280;6971;50.028;9.258;2023-07-31T14:02:51;98866.91;;;20.53;70.01
13800;BME280;6971;50.028;9.258;2023-07-31T14:07:51;98860.38;;;20.47;69.02
13800;BME280;6971;50.028;9.258;2023-07-31T14:12:52;98863.03;;;20.47;68.38
13800;BME280;6971;50.028;9.258;2023-07-31T14:17:52;98847.72;;;20.74;68.41
13800;BME280;6971;50.028;9.258;2023-07-31T14:22:54;98845.63;;;20.95;67.11
13800;BME280;6971;50.028;9.258;2023-07-31T14:27:56;98831.75;;;20.99;69.08
13800;BME280;6971;50.028;9.258;2023-07-31T14:32:57;98837.72;;;20.85;68.07
13800;BME280;6971;50.028;9.258;2023-07-31T14:37:57;98835.16;;;20.58;69.16
13800;BME280;6971;50.028;9.258;2023-07-31T14:42:58;98821.25;;;20.55;69.29
13800;BME280;6971;50.028;9.258;2023-07-31T14:47:58;98813.56;;;20.60;69.84
13800;BME280;6971;50.028;9.258;2023-07-31T14:52:58;98809.56;;;20.64;69.07
13800;BME280;6971;50.028;9.258;2023-07-31T14:58:00;98803.88;;;20.59;71.53
13800;BME280;6971;50.028;9.258;2023-07-31T15:03:02;98809.34;;;20.49;69.36
13800;BME280;6971;50.028;9.258;2023-07-31T15:08:03;98795.81;;;20.51;69.87
13800;BME280;6971;50.028;9.258;2023-07-31T15:13:03;98781.09;;;20.46;71.55
13800;BME280;6971;50.028;9.258;2023-07-31T15:18:04;98773.22;;;20.45;70.52
13800;BME280;6971;50.028;9.258;2023-07-31T15:23:04;98785.72;;;20.28;71.25
13800;BME280;6971;50.028;9.258;2023-07-31T15:28:05;98782.69;;;20.31;71.80
13800;BME280;6971;50.028;9.258;2023-07-31T15:33:08;98790.88;;;20.29;72.48
13800;BME280;6971;50.028;9.258;2023-07-31T15:38:08;98790.38;;;20.26;72.95
13800;BME280;6971;50.028;9.258;2023-07-31T15:43:09;98784.84;;;20.19;72.96
13800;BME280;6971;50.028;9.258;2023-07-31T15:48:10;98777.31;;;20.22;73.01
13800;BME280;6971;50.028;9.258;2023-07-31T15:53:12;98783.03;;;20.28;73.69
13800;BME280;6971;50.028;9.258;2023-07-31T15:58:12;98775.78;;;20.12;73.90
13800;BME280;6971;50.028;9.258;2023-07-31T16:03:12;98781.00;;;20.21;72.93
13800;BME280;6971;50.028;9.258;2023-07-31T16:08:13;98777.63;;;20.11;72.86
13800;BME280;6971;50.028;9.258;2023-07-31T16:13:15;98780.09;;;20.04;73.80
13800;BME280;6971;50.028;9.258;2023-07-31T16:18:15;98781.50;;;19.90;75.76
13800;BME280;6971;50.028;9.258;2023-07-31T16:23:16;98809.69;;;19.85;75.41
13800;BME280;6971;50.028;9.258;2023-07-31T16:28:16;98794.69;;;19.57;78.35
13800;BME280;6971;50.028;9.258;2023-07-31T16:33:16;98774.78;;;19.33;79.37
13800;BME280;6971;50.028;9.258;2023-07-31T16:38:17;98770.66;;;19.39;78.82
13800;BME280;6971;50.028;9.258;2023-07-31T16:43:18;98761.72;;;19.48;77.82
13800;BME280;6971;50.028;9.258;2023-07-31T16:48:19;98763.22;;;19.51;78.05
13800;BME280;6971;50.028;9.258;2023-07-31T16:53:21;98747.09;;;19.61;76.56
13800;BME280;6971;50.028;9.258;2023-07-31T16:58:22;98757.28;;;19.57;78.67
13800;BME280;6971;50.028;9.258;2023-07-31T17:03:22;98750.63;;;19.69;73.87
13800;BME280;6971;50.028;9.258;2023-07-31T17:08:22;98741.03;;;19.85;71.41
13800;BME280;6971;50.028;9.258;2023-07-31T17:13:23;98745.69;;;19.75;72.07
13800;BME280;6971;50.028;9.258;2023-07-31T17:18:23;98721.28;;;19.78;71.80
13800;BME280;6971;50.028;9.258;2023-07-31T17:23:24;98719.25;;;19.72;72.27
13800;BME280;6971;50.028;9.258;2023-07-31T17:28:25;98721.56;;;19.66;74.69
13800;BME280;6971;50.028;9.258;2023-07-31T17:33:26;98725.97;;;19.49;75.98
13800;BME280;6971;50.028;9.258;2023-07-31T17:38:26;98741.91;;;19.33;78.00
13800;BME280;6971;50.028;9.258;2023-07-31T17:43:26;98732.06;;;19.07;80.89
13800;BME280;6971;50.028;9.258;2023-07-31T17:48:27;98721.72;;;18.94;84.47
13800;BME280;6971;50.028;9.258;2023-07-31T17:53:27;98724.56;;;18.74;85.26
13800;BME280;6971;50.028;9.258;2023-07-31T17:58:28;98714.13;;;18.62;90.61
13800;BME280;6971;50.028;9.258;2023-07-31T18:03:29;98703.22;;;18.37;96.26
13800;BME280;6971;50.028;9.258;2023-07-31T18:08:30;98697.50;;;18.04;100.00
13800;BME280;6971;50.028;9.258;2023-07-31T18:13:30;98696.00;;;17.92;100.00
13800;BME280;6971;50.028;9.258;2023-07-31T18:18:31;98690.75;;;17.82;100.00
13800;BME280;6971;50.028;9.258;2023-07-31T18:23:33;98681.34;;;17.49;100.00
13800;BME280;6971;50.028;9.258;2023-07-31T18:28:33;98670.31;;;17.34;100.00
13800;BME280;6971;50.028;9.258;2023-07-31T18:33:33;98650.63;;;17.07;100.00
13800;BME280;6971;50.028;9.258;2023-07-31T18:38:34;98653.00;;;17.11;100.00
13800;BME280;6971;50.028;9.258;2023-07-31T18:43:34;98660.16;;;17.10;100.00
13800;BME280;6971;50.028;9.258;2023-07-31T18:48:35;98653.28;;;17.17;100.00
13800;BME280;6971;50.028;9.258;2023-07-31T18:53:36;98658.75;;;17.06;100.00
13800;BME280;6971;50.028;9.258;2023-07-31T18:58:37;98652.34;;;16.79;100.00
13800;BME280;6971;50.028;9.258;2023-07-31T19:03:37;98651.78;;;16.95;100.00
13800;BME280;6971;50.028;9.258;2023-07-31T19:08:39;98636.09;;;16.92;100.00
13800;BME280;6971;50.028;9.258;2023-07-31T19:13:40;98635.53;;;16.88;100.00
13800;BME280;6971;50.028;9.258;2023-07-31T19:18:41;98633.28;;;16.83;100.00
13800;BME280;6971;50.028;9.258;2023-07-31T19:23:41;98629.38;;;16.78;100.00
13800;BME280;6971;50.028;9.258;2023-07-31T19:28:42;98632.16;;;16.86;100.00
13800;BME280;6971;50.028;9.258;2023-07-31T19:33:43;98641.41;;;16.72;100.00
13800;BME280;6971;50.028;9.258;2023-07-31T19:38:44;98637.63;;;16.75;100.00
13800;BME280;6971;50.028;9.258;2023-07-31T19:43:45;98635.41;;;16.70;100.00
13800;BME280;6971;50.028;9.258;2023-07-31T19:48:46;98650.84;;;16.66;100.00
13800;BME280;6971;50.028;9.258;2023-07-31T19:53:46;98648.69;;;16.90;100.00
13800;BME280;6971;50.028;9.258;2023-07-31T19:58:47;98645.63;;;17.04;100.00
13800;BME280;6971;50.028;9.258;2023-07-31T20:03:48;98629.31;;;17.17;100.00
13800;BME280;6971;50.028;9.258;2023-07-31T20:08:50;98631.66;;;17.30;100.00
13800;BME280;6971;50.028;9.258;2023-07-31T20:13:50;98633.28;;;17.41;100.00
13800;BME280;6971;50.028;9.258;2023-07-31T20:18:51;98629.50;;;17.44;100.00
13800;BME280;6971;50.028;9.258;2023-07-31T20:23:51;98612.81;;;17.42;100.00
13800;BME280;6971;50.028;9.258;2023-07-31T20:28:52;98602.72;;;17.45;100.00
13800;BME280;6971;50.028;9.258;2023-07-31T20:33:53;98595.84;;;17.43;100.00
13800;BME280;6971;50.028;9.258;2023-07-31T20:38:54;98574.78;;;17.49;100.00
13800;BME280;6971;50.028;9.258;2023-07-31T20:43:55;98564.34;;;17.38;100.00
13800;BME280;6971;50.028;9.258;2023-07-31T20:48:55;98564.50;;;17.37;100.00
13800;BME280;6971;50.028;9.258;2023-07-31T20:53:56;98550.66;;;17.33;100.00
13800;BME280;6971;50.028;9.258;2023-07-31T20:58:56;98558.41;;;17.26;100.00
13800;BME280;6971;50.028;9.258;2023-07-31T21:03:57;98557.00;;;17.22;100.00
13800;BME280;6971;50.028;9.258;2023-07-31T21:08:57;98565.13;;;17.20;100.00
13800;BME280;6971;50.028;9.258;2023-07-31T21:14:01;98568.53;;;17.13;100.00
13800;BME280;6971;50.028;9.258;2023-07-31T21:19:02;98554.06;;;16.77;100.00
13800;BME280;6971;50.028;9.258;2023-07-31T21:24:03;98538.41;;;16.54;100.00
13800;BME280;6971;50.028;9.258;2023-07-31T21:29:04;98530.03;;;16.59;100.00
13800;BME280;6971;50.028;9.258;2023-07-31T21:34:05;98516.84;;;16.57;100.00
13800;BME280;6971;50.028;9.258;2023-07-31T21:39:05;98507.91;;;16.58;100.00
13800;BME280;6971;50.028;9.258;2023-07-31T21:44:06;98495.22;;;16.33;100.00
13800;BME280;6971;50.028;9.258;2023-07-31T21:49:07;98488.69;;;16.17;100.00
13800;BME280;6971;50.028;9.258;2023-07-31T21:54:08;98484.91;;;16.10;100.00
13800;BME280;6971;50.028;9.258;2023-07-31T21:59:09;98471.78;;;15.98;100.00
13800;BME280;6971;50.028;9.258;2023-07-31T22:04:09;98471.63;;;15.90;100.00
13800;BME280;6971;50.028;9.258;2023-07-31T22:09:10;98456.53;;;15.81;100.00
13800;BME280;6971;50.028;9.258;2023-07-31T22:14:10;98450.34;;;15.70;100.00
13800;BME280;6971;50.028;9.258;2023-07-31T22:19:11;98430.09;;;15.69;100.00
13800;BME280;6971;50.028;9.258;2023-07-31T22:24:13;98418.06;;;15.65;100.00
13800;BME280;6971;50.028;9.258;2023-07-31T22:29:14;98414.56;;;15.45;100.00
13800;BME280;6971;50.028;9.258;2023-07-31T22:34:14;98415.44;;;15.45;100.00
13800;BME280;6971;50.028;9.258;2023-07-31T22:39:15;98398.50;;;15.46;100.00
13800;BME280;6971;50.028;9.258;2023-07-31T22:44:16;98399.91;;;15.50;100.00
13800;BME280;6971;50.028;9.258;2023-07-31T22:49:17;98396.84;;;15.45;100.00
13800;BME280;6971;50.028;9.258;2023-07-31T22:54:18;98382.16;;;15.41;100.00
13800;BME280;6971;50.028;9.258;2023-07-31T22:59:18;98367.63;;;15.45;100.00
13800;BME280;6971;50.028;9.258;2023-07-31T23:04:20;98362.75;;;15.50;100.00
13800;BME280;6971;50.028;9.258;2023-07-31T23:09:21;98360.78;;;15.33;100.00
13800;BME280;6971;50.028;9.258;2023-07-31T23:14:22;98352.25;;;15.39;100.00
13800;BME280;6971;50.028;9.258;2023-07-31T23:19:23;98348.66;;;15.40;100.00
13800;BME280;6971;50.028;9.258;2023-07-31T23:24:25;98335.22;;;15.51;100.00
13800;BME280;6971;50.028;9.258;2023-07-31T23:29:26;98323.34;;;15.36;100.00
13800;BME280;6971;50.028;9.258;2023-07-31T23:34:26;98321.94;;;15.42;100.00
13800;BME280;6971;50.028;9.258;2023-07-31T23:39:27;98306.19;;;15.30;100.00
13800;BME280;6971;50.028;9.258;2023-07-31T23:44:28;98293.03;;;15.38;100.00
13800;BME280;6971;50.028;9.258;2023-07-31T23:49:29;98288.13;;;15.34;100.00
13800;BME280;6971;50.028;9.258;2023-07-31T23:54:30;98275.72;;;15.34;100.00
13800;BME280;6971;50.028;9.258;2023-07-31T23:59:31;98273.88;;;15.35;100.00
